createdAt,value
2018-06-17T00:01:10.501Z,88.96
2018-06-17T00:03:39.337Z,88.98
2018-06-17T00:06:08.165Z,89.06
2018-06-17T00:08:37.097Z,89.29
2018-06-17T00:11:05.975Z,89.34
2018-06-17T00:13:34.803Z,89.95
2018-06-17T00:16:03.631Z,89.30
2018-06-17T00:18:32.416Z,89.14
2018-06-17T00:21:01.310Z,88.99
2018-06-17T00:23:30.511Z,88.98
2018-06-17T00:25:59.316Z,88.80
2018-06-17T00:28:28.117Z,88.86
2018-06-17T00:30:56.952Z,88.78
2018-06-17T00:33:25.775Z,89.24
2018-06-17T00:35:54.571Z,88.83
2018-06-17T00:38:23.380Z,88.77
2018-06-17T00:40:52.167Z,88.90
2018-06-17T00:43:20.934Z,88.41
2018-06-17T00:45:49.751Z,88.54
2018-06-17T00:48:18.550Z,88.24
2018-06-17T00:50:47.321Z,88.52
2018-06-17T00:53:16.275Z,88.24
2018-06-17T00:55:45.101Z,88.23
2018-06-17T00:58:13.903Z,88.16
2018-06-17T01:00:42.893Z,88.07
2018-06-17T01:03:11.715Z,88.33
2018-06-17T01:05:40.472Z,88.32
2018-06-17T01:08:09.264Z,88.49
2018-06-17T01:10:38.076Z,88.52
2018-06-17T01:13:06.874Z,88.55
2018-06-17T01:15:35.825Z,88.66
2018-06-17T01:18:04.602Z,88.55
2018-06-17T01:20:33.395Z,88.57
2018-06-17T01:23:02.388Z,88.68
2018-06-17T01:25:31.160Z,89.07
2018-06-17T01:27:59.914Z,89.42
2018-06-17T01:30:28.766Z,89.51
2018-06-17T01:32:57.536Z,89.83
2018-06-17T01:35:26.324Z,89.60
2018-06-17T01:37:55.250Z,89.62
2018-06-17T01:40:24.121Z,89.63
2018-06-17T01:42:52.878Z,89.26
2018-06-17T01:45:21.749Z,89.77
2018-06-17T01:47:50.542Z,89.43
2018-06-17T01:50:19.291Z,89.65
2018-06-17T01:52:48.101Z,89.46
2018-06-17T01:55:16.921Z,89.29
2018-06-17T01:57:45.704Z,89.42
2018-06-17T02:00:14.807Z,89.48
2018-06-17T02:02:43.666Z,89.11
2018-06-17T02:05:17.441Z,89.14
2018-06-17T02:07:51.287Z,89.18
2018-06-17T02:10:25.195Z,89.41
2018-06-17T02:12:53.994Z,89.68
2018-06-17T02:15:22.782Z,89.63
2018-06-17T02:17:51.761Z,89.61
2018-06-17T02:20:20.528Z,89.74
2018-06-17T02:22:49.326Z,89.95
2018-06-17T02:25:18.492Z,90.09
2018-06-17T02:27:47.324Z,89.66
2018-06-17T02:30:16.091Z,89.49
2018-06-17T02:32:44.940Z,89.50
2018-06-17T02:35:13.687Z,89.60
2018-06-17T02:37:42.446Z,89.54
2018-06-17T02:40:11.449Z,89.62
2018-06-17T02:42:40.222Z,89.43
2018-06-17T02:45:14.427Z,89.41
2018-06-17T02:47:48.272Z,89.38
2018-06-17T02:50:22.244Z,89.55
2018-06-17T02:52:56.167Z,89.45
2018-06-17T02:55:24.978Z,89.80
2018-06-17T02:57:53.719Z,89.60
2018-06-17T03:00:22.505Z,89.39
2018-06-17T03:02:51.303Z,89.37
2018-06-17T03:05:21.396Z,89.27
2018-06-17T03:07:50.192Z,89.51
2018-06-17T03:10:19.186Z,89.16
2018-06-17T03:12:48.031Z,89.13
2018-06-17T03:15:16.817Z,88.81
2018-06-17T03:17:45.602Z,88.32
2018-06-17T03:20:14.333Z,88.21
2018-06-17T03:22:43.104Z,88.07
2018-06-17T03:25:17.272Z,87.03
2018-06-17T03:27:51.088Z,87.05
2018-06-17T03:30:25.110Z,84.45
2018-06-17T03:32:58.906Z,80.33
2018-06-17T03:35:32.972Z,76.53
2018-06-17T03:38:01.724Z,70.31
2018-06-17T03:40:30.490Z,67.45
2018-06-17T03:42:59.475Z,64.30
2018-06-17T03:45:28.239Z,60.75
2018-06-17T03:47:57.008Z,55.64
2018-06-17T03:50:26.104Z,53.14
2018-06-17T03:52:54.867Z,52.11
2018-06-17T03:55:23.650Z,50.73
2018-06-17T03:57:52.588Z,48.87
2018-06-17T04:00:21.390Z,46.17
2018-06-17T04:02:50.157Z,42.44
2018-06-17T04:05:24.327Z,41.94
2018-06-17T04:07:53.097Z,40.77
2018-06-17T04:10:22.046Z,38.60
2018-06-17T04:12:50.929Z,37.39
2018-06-17T04:15:19.793Z,36.80
2018-06-17T04:17:48.584Z,37.14
2018-06-17T04:20:17.538Z,36.87
2018-06-17T04:22:46.290Z,35.53
2018-06-17T04:25:15.128Z,34.49
2018-06-17T04:27:44.300Z,33.21
2018-06-17T04:30:13.067Z,32.78
2018-06-17T04:32:41.987Z,32.63
2018-06-17T04:35:10.783Z,30.48
2018-06-17T04:37:39.557Z,29.80
2018-06-17T04:40:08.393Z,30.77
2018-06-17T04:42:37.352Z,28.93
2018-06-17T04:45:06.140Z,29.91
2018-06-17T04:47:34.968Z,28.45
2018-06-17T04:50:03.892Z,27.31
2018-06-17T04:52:32.673Z,27.09
2018-06-17T04:55:01.508Z,27.10
2018-06-17T04:57:30.474Z,25.21
2018-06-17T04:59:59.283Z,25.67
2018-06-17T05:02:28.088Z,25.18
2018-06-17T05:04:56.940Z,25.17
2018-06-17T05:07:25.720Z,25.55
2018-06-17T05:09:54.560Z,24.18
2018-06-17T05:12:23.375Z,24.93
2018-06-17T05:14:52.146Z,26.01
2018-06-17T05:17:20.951Z,27.24
2018-06-17T05:19:49.796Z,27.70
2018-06-17T05:22:18.632Z,28.53
2018-06-17T05:24:47.439Z,30.73
2018-06-17T05:27:16.388Z,29.38
2018-06-17T05:29:45.218Z,30.47
2018-06-17T05:32:13.976Z,31.20
2018-06-17T05:34:42.778Z,33.12
2018-06-17T05:37:11.650Z,33.96
2018-06-17T05:39:40.460Z,35.25
2018-06-17T05:42:09.291Z,36.36
2018-06-17T05:44:38.162Z,36.54
2018-06-17T05:47:06.936Z,36.49
2018-06-17T05:49:36.069Z,38.52
2018-06-17T05:52:04.892Z,38.60
2018-06-17T05:54:33.686Z,37.83
2018-06-17T05:57:02.530Z,37.26
2018-06-17T05:59:31.303Z,38.72
2018-06-17T06:02:00.196Z,41.07
2018-06-17T06:04:29.489Z,42.13
2018-06-17T06:06:58.281Z,43.44
2018-06-17T06:09:27.142Z,42.13
2018-06-17T06:11:56.120Z,42.40
2018-06-17T06:14:24.925Z,42.27
2018-06-17T06:16:53.750Z,44.18
2018-06-17T06:19:22.580Z,44.03
2018-06-17T06:21:51.427Z,45.48
2018-06-17T06:24:20.328Z,45.30
2018-06-17T06:26:49.502Z,45.62
2018-06-17T06:29:18.346Z,46.59
2018-06-17T06:31:47.176Z,45.07
2018-06-17T06:34:16.173Z,43.86
2018-06-17T06:36:44.927Z,44.56
2018-06-17T06:39:13.715Z,46.16
2018-06-17T06:41:42.667Z,48.03
2018-06-17T06:44:11.504Z,49.81
2018-06-17T06:46:40.356Z,49.39
2018-06-17T06:49:09.312Z,50.87
2018-06-17T06:51:38.121Z,50.42
2018-06-17T06:54:06.988Z,52.04
2018-06-17T06:56:36.211Z,52.40
2018-06-17T06:59:05.078Z,53.23
2018-06-17T07:01:44.869Z,53.44
2018-06-17T07:04:24.618Z,54.43
2018-06-17T07:07:04.604Z,53.48
2018-06-17T07:09:44.975Z,53.02
2018-06-17T07:12:13.960Z,49.77
2018-06-17T07:14:42.796Z,50.68
2018-06-17T07:17:22.635Z,49.46
2018-06-17T07:19:51.458Z,45.12
2018-06-17T07:22:20.380Z,44.82
2018-06-17T07:24:49.316Z,45.58
2018-06-17T07:27:28.914Z,45.62
2018-06-17T07:29:57.735Z,46.41
2018-06-17T07:32:26.604Z,46.78
2018-06-17T07:34:55.497Z,48.60
2018-06-17T07:37:24.410Z,47.73
2018-06-17T07:40:56.816Z,47.92
2018-06-17T07:43:25.840Z,47.61
2018-06-17T07:45:54.747Z,48.94
2018-06-17T07:49:40.901Z,49.93
2018-06-17T07:52:21.142Z,51.58
2018-06-17T07:54:50.359Z,51.77
2018-06-17T07:57:20.510Z,49.52
2018-06-17T07:59:49.307Z,47.89
2018-06-17T08:02:18.522Z,48.97
2018-06-17T08:04:47.388Z,48.29
2018-06-17T08:07:16.241Z,49.51
2018-06-17T08:09:45.497Z,50.33
2018-06-17T08:12:14.518Z,49.31
2018-06-17T08:14:43.361Z,51.24
2018-06-17T08:17:12.290Z,50.42
2018-06-17T08:19:41.586Z,51.39
2018-06-17T08:22:10.370Z,54.01
2018-06-17T08:24:39.378Z,52.75
2018-06-17T08:27:08.255Z,52.64
2018-06-17T08:29:37.128Z,54.12
2018-06-17T08:32:06.204Z,51.75
2018-06-17T08:34:34.991Z,50.00
2018-06-17T08:37:03.793Z,53.11
2018-06-17T08:39:33.016Z,51.35
2018-06-17T08:42:01.800Z,51.38
2018-06-17T08:44:30.691Z,52.50
2018-06-17T08:46:59.614Z,49.74
2018-06-17T08:49:28.456Z,48.96
2018-06-17T08:51:57.274Z,49.44
2018-06-17T08:54:26.352Z,51.30
2018-06-17T08:56:55.131Z,47.99
2018-06-17T08:59:23.928Z,51.43
2018-06-17T09:01:52.779Z,51.32
2018-06-17T09:04:21.627Z,50.07
2018-06-17T09:06:50.409Z,50.79
2018-06-17T09:09:19.262Z,50.65
2018-06-17T09:11:48.114Z,49.75
2018-06-17T09:14:16.894Z,49.27
2018-06-17T09:16:46.179Z,46.48
2018-06-17T09:19:15.008Z,47.09
2018-06-17T09:21:43.869Z,47.78
2018-06-17T09:24:13.142Z,47.77
2018-06-17T09:26:42.013Z,48.18
2018-06-17T09:29:10.804Z,47.04
2018-06-17T09:31:39.701Z,50.34
2018-06-17T09:34:08.546Z,46.16
2018-06-17T09:36:37.364Z,47.12
2018-06-17T09:39:08.406Z,46.50
2018-06-17T09:41:37.220Z,46.96
2018-06-17T09:44:06.046Z,46.63
2018-06-17T09:46:34.907Z,47.63
2018-06-17T09:49:03.761Z,46.37
2018-06-17T09:51:32.620Z,45.26
2018-06-17T09:54:01.461Z,48.26
2018-06-17T09:56:30.258Z,47.76
2018-06-17T09:58:59.075Z,47.65
2018-06-17T10:01:28.119Z,44.49
2018-06-17T10:03:56.894Z,44.91
2018-06-17T10:06:25.847Z,45.82
2018-06-17T10:08:54.691Z,44.97
2018-06-17T10:11:23.525Z,45.46
2018-06-17T10:13:52.460Z,46.87
2018-06-17T10:16:21.466Z,46.51
2018-06-17T10:18:50.298Z,45.37
2018-06-17T10:21:19.157Z,44.45
2018-06-17T10:23:48.136Z,45.80
2018-06-17T10:26:16.975Z,45.94
2018-06-17T10:28:45.853Z,43.65
2018-06-17T10:31:14.741Z,43.53
2018-06-17T10:33:43.589Z,42.42
2018-06-17T10:36:12.404Z,44.14
2018-06-17T10:38:41.371Z,43.39
2018-06-17T10:41:10.228Z,44.07
2018-06-17T10:43:39.075Z,43.64
2018-06-17T10:46:08.166Z,40.86
2018-06-17T10:48:36.989Z,40.95
2018-06-17T10:51:05.872Z,41.85
2018-06-17T10:53:35.060Z,42.42
2018-06-17T10:56:04.017Z,43.94
2018-06-17T10:58:32.731Z,42.42
2018-06-17T11:01:01.562Z,43.87
2018-06-17T11:03:30.380Z,44.96
2018-06-17T11:05:59.185Z,44.75
2018-06-17T11:08:28.152Z,46.90
2018-06-17T11:10:56.969Z,49.42
2018-06-17T11:13:25.780Z,52.45
2018-06-17T11:15:55.001Z,56.02
2018-06-17T11:18:23.854Z,56.91
2018-06-17T11:20:52.896Z,57.96
2018-06-17T11:23:21.764Z,62.61
2018-06-17T11:25:50.618Z,64.01
2018-06-17T11:28:19.427Z,58.88
2018-06-17T11:30:48.370Z,65.93
2018-06-17T11:33:17.226Z,68.36
2018-06-17T11:35:46.072Z,70.09
2018-06-17T11:38:14.930Z,70.05
2018-06-17T11:40:43.708Z,70.66
2018-06-17T11:43:12.532Z,71.09
2018-06-17T11:45:41.524Z,71.72
2018-06-17T11:48:10.327Z,71.21
2018-06-17T11:50:39.127Z,71.08
2018-06-17T11:53:08.132Z,69.65
2018-06-17T11:55:36.945Z,69.05
2018-06-17T11:58:05.867Z,69.46
2018-06-17T12:00:34.761Z,68.89
2018-06-17T12:03:03.636Z,69.56
2018-06-17T12:05:32.424Z,68.84
2018-06-17T12:08:01.320Z,69.50
2018-06-17T12:10:30.117Z,68.66
2018-06-17T12:12:58.967Z,69.36
2018-06-17T12:15:28.221Z,68.89
2018-06-17T12:17:57.106Z,68.70
2018-06-17T12:20:25.933Z,68.71
2018-06-17T12:22:54.932Z,69.24
2018-06-17T12:25:23.846Z,68.68
2018-06-17T12:27:52.632Z,69.00
2018-06-17T12:30:21.671Z,68.75
2018-06-17T12:32:50.570Z,68.13
2018-06-17T12:35:19.395Z,68.02
2018-06-17T12:37:48.517Z,68.05
2018-06-17T12:40:17.330Z,68.09
2018-06-17T12:42:46.122Z,67.62
2018-06-17T12:45:14.990Z,67.05
2018-06-17T12:47:43.809Z,66.20
2018-06-17T12:50:12.644Z,66.03
2018-06-17T12:52:41.563Z,66.00
2018-06-17T12:55:10.354Z,65.91
2018-06-17T12:57:39.234Z,65.53
2018-06-17T13:00:08.567Z,65.56
2018-06-17T13:02:37.385Z,65.98
2018-06-17T13:05:06.461Z,64.83
2018-06-17T13:07:35.439Z,63.05
2018-06-17T13:10:04.349Z,64.19
2018-06-17T13:12:33.162Z,64.87
2018-06-17T13:15:02.031Z,65.54
2018-06-17T13:17:30.883Z,64.85
2018-06-17T13:19:59.741Z,64.65
2018-06-17T13:22:28.676Z,64.98
2018-06-17T13:24:57.753Z,60.98
2018-06-17T13:27:26.726Z,57.84
2018-06-17T13:29:55.756Z,55.66
2018-06-17T13:32:24.616Z,54.74
2018-06-17T13:34:53.410Z,53.85
2018-06-17T13:37:22.380Z,52.87
2018-06-17T13:39:51.315Z,52.43
2018-06-17T13:42:20.155Z,51.21
2018-06-17T13:44:49.119Z,51.74
2018-06-17T13:47:18.089Z,51.01
2018-06-17T13:49:46.903Z,54.30
2018-06-17T13:52:16.163Z,56.17
2018-06-17T13:54:45.007Z,55.19
2018-06-17T13:57:13.861Z,57.21
2018-06-17T13:59:42.715Z,56.04
2018-06-17T14:02:11.561Z,59.40
2018-06-17T14:04:40.408Z,64.15
2018-06-17T14:07:09.551Z,65.61
2018-06-17T14:09:38.471Z,63.46
2018-06-17T14:12:07.580Z,66.30
2018-06-17T14:14:36.628Z,68.12
2018-06-17T14:17:05.616Z,66.87
2018-06-17T14:19:34.491Z,66.85
2018-06-17T14:22:03.925Z,67.87
2018-06-17T14:24:32.843Z,70.37
2018-06-17T14:27:01.754Z,71.17
2018-06-17T14:29:30.783Z,71.66
2018-06-17T14:31:59.693Z,71.46
2018-06-17T14:34:28.562Z,71.60
2018-06-17T14:36:57.712Z,72.83
2018-06-17T14:39:26.548Z,73.11
2018-06-17T14:42:00.753Z,73.93
2018-06-17T14:44:34.601Z,72.63
2018-06-17T14:47:08.732Z,72.27
2018-06-17T14:49:42.726Z,73.46
2018-06-17T14:52:16.663Z,74.76
2018-06-17T14:54:45.489Z,76.34
2018-06-17T14:57:14.427Z,76.24
2018-06-17T14:59:43.315Z,77.12
2018-06-17T15:02:12.171Z,73.76
2018-06-17T15:04:41.033Z,74.04
2018-06-17T15:07:10.239Z,73.85
2018-06-17T15:09:39.234Z,74.73
2018-06-17T15:12:08.375Z,74.35
2018-06-17T15:14:37.716Z,73.75
2018-06-17T15:17:07.064Z,72.46
2018-06-17T15:19:36.005Z,59.83
2018-06-17T15:22:05.118Z,58.78
2018-06-17T15:24:33.991Z,60.04
2018-06-17T15:27:02.898Z,56.63
2018-06-17T15:29:32.041Z,62.86
2018-06-17T15:32:06.109Z,60.40
2018-06-17T15:34:40.008Z,67.30
2018-06-17T15:37:13.913Z,69.16
2018-06-17T15:39:47.778Z,68.05
2018-06-17T15:42:16.609Z,62.38
2018-06-17T15:44:45.553Z,62.49
2018-06-17T15:47:14.414Z,66.99
2018-06-17T15:49:43.229Z,63.62
2018-06-17T15:52:12.154Z,69.44
2018-06-17T15:54:41.217Z,70.56
2018-06-17T15:57:10.071Z,59.24
2018-06-17T15:59:38.964Z,60.40
2018-06-17T16:02:08.034Z,61.47
2018-06-17T16:04:36.873Z,62.71
2018-06-17T16:07:05.825Z,66.50
2018-06-17T16:09:34.813Z,69.62
2018-06-17T16:12:08.689Z,70.47
2018-06-17T16:14:42.768Z,69.49
2018-06-17T16:17:16.757Z,71.35
2018-06-17T16:19:50.614Z,71.96
2018-06-17T16:22:19.486Z,72.79
2018-06-17T16:24:48.925Z,73.86
2018-06-17T16:27:18.023Z,75.30
2018-06-17T16:29:46.876Z,76.67
2018-06-17T16:32:15.794Z,72.41
2018-06-17T16:34:45.016Z,75.36
2018-06-17T16:37:13.853Z,74.79
2018-06-17T16:39:42.704Z,75.67
2018-06-17T16:42:12.241Z,76.01
2018-06-17T16:44:41.169Z,76.99
2018-06-17T16:47:10.093Z,76.28
2018-06-17T16:49:38.995Z,75.23
2018-06-17T16:52:12.955Z,75.41
2018-06-17T16:54:47.064Z,75.45
2018-06-17T16:57:20.907Z,76.53
2018-06-17T16:59:58.524Z,76.89
2018-06-17T17:02:27.424Z,77.81
2018-06-17T17:04:56.720Z,79.06
2018-06-17T17:07:25.724Z,79.69
2018-06-17T17:09:54.670Z,80.06
2018-06-17T17:12:23.650Z,81.71
2018-06-17T17:14:52.754Z,81.30
2018-06-17T17:17:21.676Z,80.94
2018-06-17T17:19:50.546Z,81.41
2018-06-17T17:22:19.477Z,81.42
2018-06-17T17:24:48.403Z,80.92
2018-06-17T17:27:17.209Z,81.16
2018-06-17T17:29:46.151Z,81.54
2018-06-17T17:32:20.003Z,81.11
2018-06-17T17:34:54.350Z,81.40
2018-06-17T17:37:28.229Z,81.55
2018-06-17T17:40:02.185Z,81.76
2018-06-17T17:42:31.024Z,81.87
2018-06-17T17:45:05.240Z,82.21
2018-06-17T17:47:34.768Z,82.08
2018-06-17T17:50:03.865Z,81.41
2018-06-17T17:52:32.831Z,81.35
2018-06-17T17:55:01.867Z,81.94
2018-06-17T17:57:30.825Z,82.13
2018-06-17T17:59:59.815Z,82.29
2018-06-17T18:02:28.794Z,82.49
2018-06-17T18:04:57.737Z,82.93
2018-06-17T18:07:26.776Z,83.14
2018-06-17T18:09:55.825Z,83.80
2018-06-17T18:12:24.749Z,83.83
2018-06-17T18:14:53.673Z,84.03
2018-06-17T18:17:22.625Z,84.30
2018-06-17T18:19:51.727Z,84.09
2018-06-17T18:22:20.836Z,83.62
2018-06-17T18:24:54.821Z,83.65
2018-06-17T18:27:29.150Z,83.56
2018-06-17T18:30:03.021Z,83.88
2018-06-17T18:32:37.043Z,83.30
2018-06-17T18:35:10.986Z,84.14
2018-06-17T18:50:29.633Z,84.17
2018-06-17T18:52:58.544Z,83.59
2018-06-17T18:55:27.428Z,84.33
2018-06-17T18:57:56.613Z,84.48
2018-06-17T19:00:25.464Z,85.15
2018-06-17T19:02:54.458Z,85.68
2018-06-17T19:05:23.540Z,85.79
2018-06-17T19:07:52.405Z,85.91
2018-06-17T19:10:26.651Z,85.63
2018-06-17T19:13:00.628Z,85.40
2018-06-17T19:15:34.671Z,85.75
2018-06-17T19:18:06.427Z,85.72
2018-06-17T19:20:42.141Z,85.61
2018-06-17T19:23:11.081Z,85.94
2018-06-17T19:25:39.913Z,85.40
2018-06-17T19:28:08.813Z,84.62
2018-06-17T19:30:37.659Z,84.82
2018-06-17T19:33:06.520Z,84.86
2018-06-17T19:35:35.397Z,84.79
2018-06-17T19:38:04.348Z,84.99
2018-06-17T19:40:33.173Z,85.33
2018-06-17T19:43:02.125Z,85.21
2018-06-17T19:45:31.068Z,85.76
2018-06-17T19:47:59.939Z,85.56
2018-06-17T19:50:34.994Z,84.97
2018-06-17T19:53:08.993Z,85.40
2018-06-17T19:55:43.061Z,85.61
2018-06-17T19:58:17.095Z,85.14
2018-06-17T20:00:47.772Z,85.42
2018-06-17T20:03:16.563Z,85.51
2018-06-17T20:05:45.444Z,85.62
2018-06-17T20:08:14.462Z,86.25
2018-06-17T20:10:43.284Z,86.25
2018-06-17T20:13:12.089Z,86.54
2018-06-17T20:15:41.063Z,86.12
2018-06-17T20:18:10.423Z,86.53
2018-06-17T20:20:39.287Z,86.47
2018-06-17T20:23:08.141Z,86.72
2018-06-17T20:25:36.994Z,86.78
2018-06-17T20:28:05.864Z,86.63
2018-06-17T20:30:34.685Z,86.74
2018-06-17T20:33:08.420Z,86.61
2018-06-17T20:35:42.488Z,86.65
2018-06-17T20:38:16.423Z,86.98
2018-06-17T20:40:50.301Z,87.31
2018-06-17T20:43:24.171Z,87.54
2018-06-17T20:45:53.004Z,87.65
2018-06-17T20:48:21.805Z,87.78
2018-06-17T20:50:50.626Z,88.17
2018-06-17T20:53:19.608Z,87.88
2018-06-17T20:55:48.410Z,88.08
2018-06-17T20:58:17.272Z,87.92
2018-06-17T21:00:46.125Z,87.62
2018-06-17T21:03:15.078Z,87.58
2018-06-17T21:05:43.854Z,87.72
2018-06-17T21:08:12.894Z,87.80
2018-06-17T21:10:41.688Z,87.95
2018-06-17T21:13:10.482Z,87.69
2018-06-17T21:15:39.685Z,87.82
2018-06-17T21:18:08.473Z,87.85
2018-06-17T21:20:42.702Z,87.97
2018-06-17T21:23:16.551Z,87.91
2018-06-17T21:25:50.564Z,87.96
2018-06-17T21:28:19.356Z,87.93
2018-06-17T21:30:48.146Z,87.94
2018-06-17T21:33:16.964Z,87.88
2018-06-17T21:35:45.767Z,87.41
2018-06-17T21:38:14.543Z,87.46
2018-06-17T21:40:43.488Z,87.27
2018-06-17T21:43:12.297Z,87.70
2018-06-17T21:45:41.179Z,87.62
2018-06-17T21:48:10.180Z,87.22
2018-06-17T21:50:38.935Z,87.62
2018-06-17T21:53:07.759Z,87.52
2018-06-17T21:55:36.903Z,87.31
2018-06-17T21:58:05.655Z,87.37
2018-06-17T22:00:34.496Z,87.73
2018-06-17T22:03:03.721Z,87.58
2018-06-17T22:05:32.568Z,87.56
2018-06-17T22:08:06.415Z,88.00
2018-06-17T22:10:40.316Z,88.22
2018-06-17T22:13:09.110Z,88.08
2018-06-17T22:15:42.932Z,87.90
2018-06-17T22:18:11.808Z,88.04
2018-06-17T22:20:40.639Z,87.74
2018-06-17T22:23:09.437Z,88.13
2018-06-17T22:25:38.234Z,88.07
2018-06-17T22:28:07.007Z,88.35
2018-06-17T22:30:35.789Z,88.52
2018-06-17T22:33:04.849Z,88.56
2018-06-17T22:35:33.611Z,89.07
2018-06-17T22:38:02.468Z,89.30
2018-06-17T22:40:31.436Z,88.92
2018-06-17T22:43:00.228Z,88.73
2018-06-17T22:45:29.046Z,89.17
2018-06-17T22:47:58.031Z,89.04
2018-06-17T22:50:26.809Z,88.79
2018-06-17T22:53:06.552Z,88.93
2018-06-17T22:55:35.327Z,88.77
2018-06-17T22:58:09.415Z,88.93
2018-06-17T23:00:43.308Z,89.06
2018-06-17T23:03:17.392Z,89.08
2018-06-17T23:05:51.252Z,89.37
2018-06-17T23:08:25.171Z,89.41
2018-06-17T23:10:54.042Z,89.10
2018-06-17T23:13:22.878Z,89.21
2018-06-17T23:15:51.715Z,89.23
2018-06-17T23:18:20.476Z,89.39
2018-06-17T23:20:49.288Z,89.37
2018-06-17T23:23:18.425Z,89.28
2018-06-17T23:25:47.300Z,89.42
2018-06-17T23:28:16.041Z,89.09
2018-06-17T23:30:44.998Z,89.13
2018-06-17T23:33:13.719Z,89.51
2018-06-17T23:35:42.486Z,89.40
2018-06-17T23:38:11.591Z,89.22
2018-06-17T23:40:40.364Z,89.28
2018-06-17T23:43:09.225Z,89.10
2018-06-17T23:45:42.102Z,89.53
2018-06-17T23:48:16.108Z,89.80
2018-06-17T23:52:56.242Z,89.56
2018-06-17T23:55:30.068Z,89.58
2018-06-17T23:57:59.092Z,89.78
